Time,TemperatureF,DewpointF,PressureIn,WindDirection,WindDirectionDegrees,WindSpeedMPH,WindSpeedGustMPH,Humidity,HourlyPrecipIn,Conditions,Clouds,dailyrainin,SoftwareType,DateUTC
2013-02-28 00:00:00,21.0,-99.9,-100.00,SW,216,6.0,12.0,-999,-99.99,,,0.00,,2013-02-28 08:00:00,
2013-02-28 00:53:00,21.0,-99.9,-100.00,SW,216,6.0,12.0,-999,-99.99,,,0.00,,2013-02-28 08:53:00,
2013-02-28 01:00:00,24.0,-99.9,-100.00,South,190,4.0,8.0,-999,-99.99,,,0.00,,2013-02-28 09:00:00,
2013-02-28 01:53:00,24.0,-99.9,-100.00,South,190,4.0,8.0,-999,-99.99,,,0.00,,2013-02-28 09:53:00,
2013-02-28 02:00:00,22.0,-99.9,-100.00,SSW,212,5.0,10.0,-999,-99.99,,,0.00,,2013-02-28 10:00:00,
2013-02-28 02:52:00,22.0,-99.9,-100.00,SSW,212,5.0,10.0,-999,-99.99,,,0.00,,2013-02-28 10:52:00,
2013-02-28 03:00:00,22.0,-99.9,-100.00,SW,232,3.0,7.0,-999,-99.99,,,0.00,,2013-02-28 11:00:00,
2013-02-28 03:53:00,22.0,-99.9,-100.00,SW,232,3.0,7.0,-999,-99.99,,,0.00,,2013-02-28 11:53:00,
2013-02-28 04:00:00,23.0,-99.9,-100.00,SSW,195,5.0,9.0,-999,-99.99,,,0.00,,2013-02-28 12:00:00,
2013-02-28 04:53:00,23.0,-99.9,-100.00,SSW,195,5.0,9.0,-999,-99.99,,,0.00,,2013-02-28 12:53:00,
2013-02-28 05:00:00,23.0,-99.9,-100.00,SSW,196,7.0,11.0,-999,-99.99,,,0.00,,2013-02-28 13:00:00,
2013-02-28 05:52:00,23.0,-99.9,-100.00,SSW,196,7.0,11.0,-999,-99.99,,,0.00,,2013-02-28 13:52:00,
2013-02-28 06:00:00,24.0,-99.9,-100.00,SSW,197,7.0,13.0,-999,-99.99,,,0.00,,2013-02-28 14:00:00,
2013-02-28 06:52:00,24.0,-99.9,-100.00,SSW,197,7.0,13.0,-999,-99.99,,,0.00,,2013-02-28 14:52:00,
2013-02-28 07:00:00,24.0,-99.9,-100.00,SSW,199,7.0,12.0,-999,-99.99,,,0.00,,2013-02-28 15:00:00,
2013-02-28 07:53:00,24.0,-99.9,-100.00,SSW,199,7.0,12.0,-999,-99.99,,,0.00,,2013-02-28 15:53:00,
2013-02-28 08:00:00,25.0,-99.9,-100.00,SSW,206,7.0,12.0,-999,-99.99,,,0.01,,2013-02-28 16:00:00,
2013-02-28 08:53:00,25.0,-99.9,-100.00,SSW,206,7.0,12.0,-999,-99.99,,,0.01,,2013-02-28 16:53:00,
2013-02-28 09:00:00,26.0,-99.9,-100.00,SSW,207,7.0,13.0,-999,-99.99,,,0.01,,2013-02-28 17:00:00,
2013-02-28 09:53:00,26.0,-99.9,-100.00,SSW,207,7.0,13.0,-999,-99.99,,,0.01,,2013-02-28 17:53:00,
2013-02-28 11:00:00,27.0,-99.9,-100.00,SSW,207,11.0,16.0,-999,-99.99,,,0.01,,2013-02-28 19:00:00,
2013-02-28 11:52:00,27.0,-99.9,-100.00,SSW,207,11.0,16.0,-999,-99.99,,,0.01,,2013-02-28 19:52:00,
2013-02-28 12:00:00,29.0,-99.9,-100.00,SSW,208,10.0,14.0,-999,-99.99,,,0.00,,2013-02-28 20:00:00,
2013-02-28 12:52:00,29.0,-99.9,-100.00,SSW,208,10.0,14.0,-999,-99.99,,,0.00,,2013-02-28 20:52:00,
2013-02-28 14:00:00,29.0,-99.9,-100.00,SSW,197,11.0,17.0,-999,-99.99,,,0.01,,2013-02-28 22:00:00,
2013-02-28 14:52:00,29.0,-99.9,-100.00,SSW,197,11.0,17.0,-999,-99.99,,,0.01,,2013-02-28 22:52:00,
2013-02-28 15:00:00,29.0,-99.9,-100.00,SSW,201,11.0,16.0,-999,-99.99,,,0.01,,2013-02-28 23:00:00,
2013-02-28 15:53:00,29.0,-99.9,-100.00,SSW,201,11.0,16.0,-999,-99.99,,,0.01,,2013-02-28 23:53:00,
2013-02-28 16:00:00,29.0,-99.9,-100.00,SSW,203,10.0,15.0,-999,-99.99,,,0.01,,2013-03-01 00:00:00,
2013-02-28 16:52:00,29.0,-99.9,-100.00,SSW,203,10.0,15.0,-999,-99.99,,,0.01,,2013-03-01 00:52:00,
2013-02-28 17:00:00,29.0,-99.9,-100.00,SSW,193,10.0,14.0,-999,-99.99,,,0.01,,2013-03-01 01:00:00,
2013-02-28 17:52:00,29.0,-99.9,-100.00,SSW,193,10.0,14.0,-999,-99.99,,,0.01,,2013-03-01 01:52:00,
2013-02-28 18:00:00,29.0,-99.9,-100.00,SSW,199,8.0,12.0,-999,-99.99,,,0.01,,2013-03-01 02:00:00,
2013-02-28 18:52:00,29.0,-99.9,-100.00,SSW,199,8.0,12.0,-999,-99.99,,,0.01,,2013-03-01 02:52:00,
2013-02-28 19:00:00,29.0,-99.9,-100.00,SSW,206,7.0,10.0,-999,-99.99,,,0.01,,2013-03-01 03:00:00,
2013-02-28 19:52:00,29.0,-99.9,-100.00,SSW,206,7.0,10.0,-999,-99.99,,,0.01,,2013-03-01 03:52:00,
2013-02-28 20:00:00,29.0,-99.9,-100.00,SSW,203,6.0,10.0,-999,-99.99,,,0.01,,2013-03-01 04:00:00,
2013-02-28 20:52:00,29.0,-99.9,-100.00,SSW,203,6.0,10.0,-999,-99.99,,,0.01,,2013-03-01 04:52:00,
2013-02-28 21:00:00,30.0,-99.9,-100.00,SSW,208,6.0,10.0,-999,-99.99,,,0.01,,2013-03-01 05:00:00,
2013-02-28 21:53:00,30.0,-99.9,-100.00,SSW,208,6.0,10.0,-999,-99.99,,,0.01,,2013-03-01 05:53:00,
2013-02-28 22:00:00,30.0,-99.9,-100.00,SSW,213,4.0,10.0,-999,-99.99,,,0.01,,2013-03-01 06:00:00,
2013-02-28 22:53:00,30.0,-99.9,-100.00,SSW,213,4.0,10.0,-999,-99.99,,,0.01,,2013-03-01 06:53:00,
2013-02-28 23:00:00,30.0,-99.9,-100.00,SW,219,5.0,10.0,-999,-99.99,,,0.01,,2013-03-01 07:00:00,
2013-02-28 23:52:00,30.0,-99.9,-100.00,SW,219,5.0,10.0,-999,-99.99,,,0.01,,2013-03-01 07:52:00,